Time;durP1;ratioP1;P1;durP2;ratioP2;P2;SDS_P1;SDS_P2;PMS_P1;PMS_P2;Temp;Humidity;BMP_temperature;BMP_pressure;BME280_temperature;BME280_humidity;BME280_pressure;Samples;Min_cycle;Max_cycle;Signal;HPM_P1;HPM_P2
2020/12/06 00:00:29;;;;;;;20.02;11.10;;;0.10;93.10;;;;;;5034835;28;20374;-88
2020/12/06 00:02:55;;;;;;;20.98;10.48;;;0.10;93.10;;;;;;5030503;28;20489;-88
2020/12/06 00:05:20;;;;;;;21.75;12.43;;;0.10;93.10;;;;;;5023830;28;20056;-89
2020/12/06 00:07:46;;;;;;;20.25;11.60;;;0.20;93.20;;;;;;5034367;28;20397;-88
2020/12/06 00:10:17;;;;;;;18.58;11.40;;;0.20;93.20;;;;;;5034204;28;20017;-88
2020/12/06 00:12:44;;;;;;;18.35;11.07;;;0.30;93.20;;;;;;5033880;28;20061;-88
2020/12/06 00:15:10;;;;;;;19.38;11.27;;;0.20;93.00;;;;;;5034265;28;20451;-88
2020/12/06 00:17:36;;;;;;;20.90;11.23;;;0.20;92.90;;;;;;5033697;28;20025;-88
2020/12/06 00:20:08;;;;;;;17.63;9.27;;;0.10;92.90;;;;;;5031723;28;20108;-88
2020/12/06 00:22:34;;;;;;;18.08;10.30;;;0.00;93.00;;;;;;5034126;28;20120;-88
2020/12/06 00:24:59;;;;;;;16.15;9.85;;;0.00;93.10;;;;;;5032526;28;20112;-89
2020/12/06 00:27:25;;;;;;;17.60;10.43;;;0.00;93.10;;;;;;5031205;28;20045;-88
2020/12/06 00:29:50;;;;;;;19.55;10.70;;;-0.10;93.10;;;;;;5039908;28;20036;-88
2020/12/06 00:32:16;;;;;;;20.77;10.70;;;-0.10;93.20;;;;;;5026585;28;20077;-88
2020/12/06 00:34:41;;;;;;;22.85;10.80;;;-0.20;93.20;;;;;;5040895;28;20034;-88
2020/12/06 00:37:07;;;;;;;16.83;9.93;;;-0.30;93.20;;;;;;5033893;28;20025;-89
2020/12/06 00:39:32;;;;;;;18.10;10.80;;;-0.20;93.30;;;;;;5034072;28;20036;-88
2020/12/06 00:41:58;;;;;;;20.10;10.75;;;-0.30;93.30;;;;;;5034058;28;20515;-88
2020/12/06 00:44:23;;;;;;;22.00;10.60;;;-0.30;93.40;;;;;;5025283;28;20062;-88
2020/12/06 00:46:52;;;;;;;19.80;10.35;;;-0.40;93.40;;;;;;5039561;28;20504;-88
2020/12/06 00:49:17;;;;;;;17.48;10.40;;;-0.40;93.50;;;;;;5042567;28;20097;-88
2020/12/06 00:51:43;;;;;;;17.48;10.57;;;-0.40;93.50;;;;;;5033627;28;20120;-88
2020/12/06 00:54:08;;;;;;;17.70;10.20;;;-0.40;93.50;;;;;;5033655;28;20040;-89
2020/12/06 00:56:34;;;;;;;22.15;11.02;;;-0.40;93.50;;;;;;5024337;28;20047;-88
2020/12/06 00:58:59;;;;;;;16.92;9.40;;;-0.40;93.50;;;;;;5013777;28;20033;-88
2020/12/06 01:01:25;;;;;;;20.08;10.02;;;-0.40;93.50;;;;;;5018695;28;20102;-88
2020/12/06 01:03:50;;;;;;;17.70;10.07;;;-0.50;93.50;;;;;;5033656;28;20022;-88
2020/12/06 01:06:18;;;;;;;20.10;11.07;;;-0.50;93.60;;;;;;5033289;28;20037;-88
2020/12/06 01:08:44;;;;;;;19.50;10.32;;;-0.50;93.70;;;;;;5029092;28;20026;-88
2020/12/06 01:11:12;;;;;;;16.17;9.02;;;-0.50;93.70;;;;;;5031809;28;20448;-88
2020/12/06 01:13:37;;;;;;;17.85;10.23;;;-0.50;93.70;;;;;;5033203;28;20116;-88
2020/12/06 01:16:03;;;;;;;16.40;10.60;;;-0.50;93.70;;;;;;5033172;28;20175;-88
2020/12/06 01:18:28;;;;;;;18.75;11.73;;;-0.50;93.80;;;;;;5032879;28;20167;-88
2020/12/06 01:20:54;;;;;;;17.10;10.50;;;-0.50;93.70;;;;;;5032015;28;20021;-88
2020/12/06 01:23:20;;;;;;;20.13;10.77;;;-0.50;93.80;;;;;;5015333;28;20111;-88
2020/12/06 01:25:45;;;;;;;19.67;10.43;;;-0.50;93.70;;;;;;5021305;28;20124;-88
2020/12/06 01:28:11;;;;;;;18.40;10.20;;;-0.50;93.70;;;;;;5032635;28;20029;-88
2020/12/06 01:30:37;;;;;;;19.48;10.23;;;-0.50;93.80;;;;;;5032953;28;20033;-88
2020/12/06 01:33:02;;;;;;;18.40;10.38;;;-0.40;93.90;;;;;;5028282;28;20371;-88
2020/12/06 01:35:28;;;;;;;20.13;11.52;;;-0.40;93.90;;;;;;5029641;28;20204;-88
2020/12/06 01:37:53;;;;;;;22.45;11.50;;;-0.40;93.90;;;;;;5032904;28;20065;-88
2020/12/06 01:40:19;;;;;;;18.95;11.45;;;-0.20;94.00;;;;;;5020633;28;20018;-88
2020/12/06 01:42:44;;;;;;;22.48;11.65;;;-0.20;93.90;;;;;;5032532;28;20029;-88
2020/12/06 01:45:10;;;;;;;18.98;10.32;;;-0.10;93.90;;;;;;5015620;28;20044;-89
2020/12/06 01:47:35;;;;;;;19.35;10.95;;;-0.10;93.80;;;;;;5032707;28;20022;-88
2020/12/06 01:50:01;;;;;;;20.30;12.30;;;0.00;93.80;;;;;;5032346;28;20025;-89
2020/12/06 01:52:29;;;;;;;20.27;11.00;;;0.00;93.70;;;;;;5030166;28;20460;-88
2020/12/06 01:54:55;;;;;;;22.88;13.10;;;0.00;93.80;;;;;;5032764;28;20045;-89
2020/12/06 01:57:21;;;;;;;25.30;13.88;;;0.00;93.80;;;;;;5032801;28;20036;-88
2020/12/06 01:59:46;;;;;;;23.20;13.50;;;0.00;93.90;;;;;;5036423;28;20025;-88
2020/12/06 02:02:13;;;;;;;21.95;12.77;;;0.20;94.00;;;;;;5035324;28;20033;-88
2020/12/06 02:04:40;;;;;;;25.23;13.45;;;0.10;93.80;;;;;;5023949;28;20045;-88
2020/12/06 02:07:05;;;;;;;23.95;13.65;;;0.10;93.90;;;;;;5035962;28;20025;-89
2020/12/06 02:09:31;;;;;;;21.58;13.15;;;0.20;93.90;;;;;;5036542;28;20600;-88
2020/12/06 02:11:58;;;;;;;21.95;13.27;;;0.20;94.00;;;;;;5036291;28;20030;-88
2020/12/06 02:14:24;;;;;;;21.45;13.02;;;0.20;93.90;;;;;;5036587;28;20079;-89
2020/12/06 02:16:54;;;;;;;19.98;12.27;;;0.30;93.90;;;;;;5029553;28;20026;-88
2020/12/06 02:19:20;;;;;;;22.40;13.40;;;0.30;93.90;;;;;;5049461;28;20108;-88
2020/12/06 02:21:45;;;;;;;24.23;13.48;;;0.30;94.00;;;;;;5040684;28;20121;-88
2020/12/06 02:24:15;;;;;;;22.52;12.88;;;0.20;93.80;;;;;;5030200;28;20030;-88
2020/12/06 02:26:46;;;;;;;23.55;12.20;;;0.20;93.80;;;;;;5040764;28;20409;-88
2020/12/06 02:29:12;;;;;;;25.48;13.05;;;0.20;93.90;;;;;;5021828;28;20116;-88
2020/12/06 02:31:39;;;;;;;22.08;12.57;;;0.10;94.00;;;;;;5036202;28;20064;-88
2020/12/06 02:34:06;;;;;;;21.83;12.98;;;0.10;94.00;;;;;;5035974;28;20025;-88
2020/12/06 02:36:32;;;;;;;23.90;13.77;;;0.10;94.00;;;;;;5035200;28;20040;-88
2020/12/06 02:38:58;;;;;;;22.17;12.98;;;0.10;94.10;;;;;;5035445;28;20022;-88
2020/12/06 02:41:44;;;;;;;21.35;12.93;;;0.10;94.10;;;;;;5038698;28;20025;-88
2020/12/06 02:44:11;;;;;;;22.70;13.60;;;0.00;94.00;;;;;;5015825;28;20573;-88
2020/12/06 02:46:37;;;;;;;21.48;12.65;;;0.00;94.10;;;;;;5017256;28;20026;-89
2020/12/06 02:49:04;;;;;;;25.27;14.32;;;0.00;94.20;;;;;;5020198;28;20037;-88
2020/12/06 02:51:29;;;;;;;24.90;14.35;;;0.10;94.20;;;;;;5035888;28;20037;-88
2020/12/06 02:53:55;;;;;;;27.65;16.73;;;0.10;94.30;;;;;;5025163;28;20034;-88
2020/12/06 02:56:20;;;;;;;27.23;16.27;;;0.20;94.30;;;;;;5036664;28;20037;-88
2020/12/06 02:58:46;;;;;;;28.77;16.70;;;0.20;94.30;;;;;;5031677;28;20021;-88
2020/12/06 03:01:12;;;;;;;28.00;16.77;;;0.20;94.30;;;;;;5035888;28;20018;-88
2020/12/06 03:03:38;;;;;;;24.55;15.88;;;0.30;94.30;;;;;;5031919;28;20391;-89
2020/12/06 03:06:04;;;;;;;27.38;15.77;;;0.30;94.30;;;;;;5029305;28;20048;-88
2020/12/06 03:08:29;;;;;;;26.45;15.27;;;0.40;94.30;;;;;;5035234;28;20087;-88
2020/12/06 03:10:55;;;;;;;25.70;14.98;;;0.40;94.30;;;;;;5016777;28;20033;-88
2020/12/06 03:13:20;;;;;;;28.10;16.02;;;0.40;94.30;;;;;;5050085;28;20034;-88
2020/12/06 03:15:46;;;;;;;26.05;15.00;;;0.40;94.30;;;;;;5035082;28;20458;-88
2020/12/06 03:18:11;;;;;;;24.52;15.35;;;0.40;94.30;;;;;;5027343;28;20026;-88
2020/12/06 03:20:37;;;;;;;25.60;15.20;;;0.50;94.30;;;;;;5029931;28;20079;-89
2020/12/06 03:23:02;;;;;;;27.25;15.60;;;0.50;94.30;;;;;;5033951;28;20120;-89
2020/12/06 03:25:28;;;;;;;28.65;17.10;;;0.50;94.30;;;;;;5035683;28;20028;-88
2020/12/06 03:27:53;;;;;;;24.10;14.88;;;0.50;94.30;;;;;;5034972;28;20026;-88
2020/12/06 03:30:19;;;;;;;26.13;15.40;;;0.50;94.30;;;;;;5033690;28;20037;-89
2020/12/06 03:32:44;;;;;;;31.45;16.95;;;0.50;94.30;;;;;;5034471;28;20065;-88
2020/12/06 03:35:10;;;;;;;27.73;16.50;;;0.50;94.30;;;;;;5035204;28;20021;-88
2020/12/06 03:37:36;;;;;;;27.77;16.35;;;0.50;94.30;;;;;;5035981;28;20030;-88
2020/12/06 03:40:02;;;;;;;24.27;15.07;;;0.50;94.30;;;;;;5034702;28;20030;-88
2020/12/06 03:42:27;;;;;;;26.45;16.15;;;0.50;94.40;;;;;;5027466;28;20029;-88
2020/12/06 03:44:52;;;;;;;29.60;17.48;;;0.50;94.70;;;;;;5027469;28;20052;-88
2020/12/06 03:47:18;;;;;;;31.20;17.00;;;0.50;94.40;;;;;;5034654;28;20038;-87
2020/12/06 03:49:44;;;;;;;25.90;16.45;;;0.50;94.40;;;;;;5021489;28;20427;-88
2020/12/06 03:52:10;;;;;;;29.63;16.77;;;0.50;94.40;;;;;;5027000;28;20038;-89
2020/12/06 03:54:35;;;;;;;28.42;16.33;;;0.50;94.40;;;;;;5027391;28;20018;-88
2020/12/06 03:57:01;;;;;;;34.70;17.77;;;0.50;94.40;;;;;;5027484;28;20034;-89
2020/12/06 03:59:26;;;;;;;27.58;16.63;;;0.50;94.40;;;;;;5019968;28;20025;-88
2020/12/06 04:01:52;;;;;;;26.17;15.75;;;0.50;94.40;;;;;;5030719;28;20532;-89
2020/12/06 04:04:17;;;;;;;28.75;17.17;;;0.50;94.40;;;;;;5033859;28;20026;-89
2020/12/06 04:06:43;;;;;;;28.02;16.10;;;0.60;94.50;;;;;;5033401;28;20183;-88
2020/12/06 04:09:08;;;;;;;27.90;15.85;;;0.60;94.50;;;;;;5024723;28;20398;-89
2020/12/06 04:11:34;;;;;;;27.20;15.48;;;0.60;94.50;;;;;;5031316;28;20038;-89
2020/12/06 04:13:59;;;;;;;25.10;16.10;;;0.60;94.50;;;;;;5035545;28;20041;-88
2020/12/06 04:16:25;;;;;;;27.55;16.42;;;0.60;94.50;;;;;;5034655;28;20022;-88
2020/12/06 04:18:50;;;;;;;29.40;17.13;;;0.60;94.50;;;;;;5024471;28;20470;-88
2020/12/06 04:21:16;;;;;;;29.10;16.55;;;0.60;94.50;;;;;;5031185;28;20025;-88
2020/12/06 04:23:41;;;;;;;30.33;17.70;;;0.60;94.50;;;;;;5033474;28;20028;-89
2020/12/06 04:26:07;;;;;;;25.75;15.38;;;0.60;94.50;;;;;;5018242;28;20394;-89
2020/12/06 04:28:32;;;;;;;29.92;17.95;;;0.60;94.40;;;;;;5032952;28;20116;-89
2020/12/06 04:30:58;;;;;;;28.98;17.00;;;0.60;94.40;;;;;;5034053;28;20018;-88
2020/12/06 04:33:24;;;;;;;30.27;17.55;;;0.60;94.50;;;;;;5027116;28;20049;-88
2020/12/06 04:35:50;;;;;;;30.75;17.05;;;0.70;94.50;;;;;;5021101;28;20021;-88
2020/12/06 04:38:16;;;;;;;30.35;18.02;;;0.70;94.50;;;;;;5032769;28;20068;-88
2020/12/06 04:40:42;;;;;;;30.85;17.58;;;0.70;94.50;;;;;;5033413;28;20017;-88
2020/12/06 04:43:08;;;;;;;30.67;17.15;;;0.80;94.50;;;;;;5019657;28;20045;-88
2020/12/06 04:45:33;;;;;;;27.35;15.98;;;0.80;94.50;;;;;;5014517;28;20030;-87
2020/12/06 04:48:03;;;;;;;28.55;17.42;;;0.80;94.50;;;;;;5025993;28;20026;-88
2020/12/06 04:50:32;;;;;;;34.30;18.25;;;0.80;94.50;;;;;;5017394;28;20025;-89
2020/12/06 04:52:59;;;;;;;27.35;16.98;;;0.90;94.50;;;;;;5033511;28;20034;-88
2020/12/06 04:55:35;;;;;;;25.23;16.35;;;0.90;94.50;;;;;;5027182;28;20029;-88
2020/12/06 04:58:03;;;;;;;25.77;16.50;;;0.90;94.40;;;;;;5038514;28;20076;-89
2020/12/06 05:00:37;;;;;;;29.42;17.23;;;0.90;94.40;;;;;;5033970;28;20377;-88
2020/12/06 05:03:07;;;;;;;31.88;17.08;;;1.00;94.40;;;;;;5033210;28;20029;-89
2020/12/06 05:05:40;;;;;;;27.52;16.95;;;1.00;94.40;;;;;;5031587;28;20022;-88
2020/12/06 05:08:10;;;;;;;25.88;15.65;;;1.00;94.40;;;;;;5018430;28;20053;-88
2020/12/06 05:10:46;;;;;;;28.20;15.55;;;1.00;94.40;;;;;;5017667;28;20021;-88
2020/12/06 05:13:14;;;;;;;31.17;17.77;;;1.00;94.40;;;;;;5033352;28;20573;-88
2020/12/06 05:15:40;;;;;;;29.77;17.75;;;1.00;94.40;;;;;;5032329;28;20041;-88
2020/12/06 05:18:05;;;;;;;27.63;16.73;;;1.00;94.40;;;;;;5031124;28;20037;-88
2020/12/06 05:20:32;;;;;;;28.05;17.15;;;1.00;94.40;;;;;;5017814;28;20022;-88
2020/12/06 05:22:58;;;;;;;31.65;17.55;;;1.00;94.30;;;;;;5030931;28;20021;-88
2020/12/06 05:25:24;;;;;;;30.23;18.42;;;1.00;94.30;;;;;;5033610;28;20036;-88
2020/12/06 05:27:49;;;;;;;26.83;16.67;;;1.00;94.30;;;;;;5033495;28;20079;-88
2020/12/06 05:30:16;;;;;;;30.92;18.10;;;1.00;94.30;;;;;;5035023;28;20116;-88
2020/12/06 05:32:42;;;;;;;32.67;17.80;;;1.00;94.30;;;;;;5028714;28;20097;-88
2020/12/06 05:35:09;;;;;;;33.13;19.48;;;0.90;94.30;;;;;;5045132;28;20037;-89
2020/12/06 05:37:41;;;;;;;32.33;18.65;;;1.00;94.40;;;;;;5028906;28;20030;-88
2020/12/06 05:40:12;;;;;;;28.85;17.58;;;1.00;94.30;;;;;;5020834;28;20109;-88
2020/12/06 05:42:42;;;;;;;34.60;19.90;;;0.90;94.30;;;;;;5024582;28;20036;-88
2020/12/06 05:45:12;;;;;;;32.58;18.60;;;1.00;94.40;;;;;;5024032;28;20069;-88
2020/12/06 05:47:38;;;;;;;31.08;18.38;;;1.00;94.40;;;;;;5033153;28;20033;-89
2020/12/06 05:50:06;;;;;;;28.83;18.45;;;1.00;94.30;;;;;;5031721;28;20032;-87
2020/12/06 05:52:33;;;;;;;30.77;18.27;;;1.00;94.40;;;;;;5029363;28;20048;-89
2020/12/06 05:55:00;;;;;;;35.20;19.90;;;1.00;94.30;;;;;;5032980;28;20493;-89
2020/12/06 05:57:28;;;;;;;31.95;18.35;;;1.00;94.30;;;;;;5027285;28;20080;-90
2020/12/06 06:00:00;;;;;;;36.53;20.20;;;1.00;94.40;;;;;;5030399;28;20021;-89
2020/12/06 06:02:27;;;;;;;31.83;18.75;;;1.00;94.30;;;;;;5021132;28;20025;-90
2020/12/06 06:04:57;;;;;;;35.63;19.55;;;1.00;94.30;;;;;;5029324;28;20109;-89
2020/12/06 06:07:23;;;;;;;32.65;20.17;;;1.00;94.30;;;;;;5028714;28;20026;-90
2020/12/06 06:09:59;;;;;;;32.63;19.50;;;1.00;94.30;;;;;;5028269;28;20402;-88
2020/12/06 06:12:25;;;;;;;31.83;19.23;;;1.00;94.30;;;;;;5032210;28;20469;-90
2020/12/06 06:14:59;;;;;;;35.90;20.88;;;1.00;94.30;;;;;;5031220;28;20057;-89
2020/12/06 06:17:26;;;;;;;31.83;20.20;;;1.10;94.30;;;;;;5026346;28;20053;-87
2020/12/06 06:19:52;;;;;;;30.52;18.63;;;1.00;94.30;;;;;;5019113;28;20457;-88
2020/12/06 06:22:23;;;;;;;34.38;20.20;;;1.00;94.30;;;;;;5031824;28;20025;-87
2020/12/06 06:24:49;;;;;;;28.02;18.40;;;1.10;94.30;;;;;;5026769;28;20025;-88
2020/12/06 06:27:16;;;;;;;29.60;17.73;;;1.10;94.30;;;;;;5032489;28;20021;-87
2020/12/06 06:29:42;;;;;;;36.47;20.48;;;1.10;94.30;;;;;;5032489;28;20029;-88
2020/12/06 06:32:08;;;;;;;36.30;20.13;;;1.10;94.60;;;;;;5029611;28;20041;-88
2020/12/06 06:34:34;;;;;;;33.42;19.67;;;1.10;94.20;;;;;;5019903;28;20056;-88
2020/12/06 06:36:59;;;;;;;35.95;20.55;;;1.20;94.20;;;;;;5026156;28;20056;-88
2020/12/06 06:39:26;;;;;;;32.83;18.98;;;1.20;94.20;;;;;;5022975;28;20489;-88
2020/12/06 06:42:00;;;;;;;35.20;18.92;;;1.20;94.20;;;;;;5038351;28;20043;-88
2020/12/06 06:44:27;;;;;;;35.92;18.67;;;1.20;94.20;;;;;;5037909;28;20045;-88
2020/12/06 06:47:00;;;;;;;33.03;20.05;;;1.10;94.20;;;;;;5029590;28;20065;-89
2020/12/06 06:49:26;;;;;;;33.70;18.20;;;1.10;94.20;;;;;;5026801;28;20098;-89
2020/12/06 06:51:53;;;;;;;35.80;19.33;;;1.20;94.20;;;;;;5035438;28;20033;-89
2020/12/06 06:54:30;;;;;;;35.92;19.88;;;1.20;94.20;;;;;;5032762;28;20056;-88
2020/12/06 06:56:57;;;;;;;35.92;19.63;;;1.20;94.20;;;;;;5036767;28;20029;-89
2020/12/06 06:59:39;;;;;;;34.85;19.80;;;1.20;94.20;;;;;;5035196;28;20036;-89
2020/12/06 07:02:06;;;;;;;32.25;18.80;;;1.20;94.20;;;;;;5029018;28;20453;-88
2020/12/06 07:04:32;;;;;;;37.30;20.45;;;1.30;94.20;;;;;;5015680;28;20095;-89
2020/12/06 07:06:58;;;;;;;31.77;18.88;;;1.30;94.20;;;;;;5022728;28;20570;-89
2020/12/06 07:09:29;;;;;;;32.17;18.55;;;1.30;94.20;;;;;;5034029;28;20072;-88
2020/12/06 07:11:56;;;;;;;36.67;20.00;;;1.30;94.20;;;;;;5035630;28;20045;-89
2020/12/06 07:14:23;;;;;;;37.85;20.48;;;1.30;94.20;;;;;;5031832;28;20025;-88
2020/12/06 07:16:52;;;;;;;33.38;19.27;;;1.30;94.20;;;;;;5036257;28;20164;-88
2020/12/06 07:19:18;;;;;;;35.50;19.63;;;1.30;94.20;;;;;;5030923;28;20033;-87
2020/12/06 07:21:44;;;;;;;36.00;19.73;;;1.30;94.10;;;;;;5035365;28;20038;-89
2020/12/06 07:24:10;;;;;;;33.10;19.40;;;1.30;94.10;;;;;;5036387;28;20493;-89
2020/12/06 07:26:35;;;;;;;33.63;18.50;;;1.30;94.10;;;;;;5035533;28;20056;-88
2020/12/06 07:29:01;;;;;;;36.95;19.23;;;1.30;94.10;;;;;;5021336;28;20021;-89
2020/12/06 07:31:27;;;;;;;30.05;16.50;;;1.30;94.10;;;;;;5033963;28;20108;-89
2020/12/06 07:33:54;;;;;;;34.83;19.55;;;1.40;94.20;;;;;;5032401;28;20029;-89
2020/12/06 07:36:19;;;;;;;37.17;20.67;;;1.40;94.20;;;;;;5035060;28;20023;-89
2020/12/06 07:38:45;;;;;;;33.67;18.90;;;1.40;94.20;;;;;;5035885;28;20383;-90
2020/12/06 07:41:11;;;;;;;31.90;18.27;;;1.40;94.10;;;;;;5034786;28;20025;-89
2020/12/06 07:43:36;;;;;;;37.50;21.50;;;1.40;94.10;;;;;;5027683;28;20111;-89
2020/12/06 07:46:17;;;;;;;39.20;20.80;;;1.40;94.10;;;;;;5022091;28;20397;-90
2020/12/06 07:48:43;;;;;;;31.80;17.75;;;1.40;94.10;;;;;;5028039;28;20029;-89
2020/12/06 07:51:08;;;;;;;37.22;19.35;;;1.40;94.10;;;;;;5033574;28;20029;-89
2020/12/06 07:53:51;;;;;;;31.17;17.90;;;1.40;94.10;;;;;;5027835;28;20084;-89
2020/12/06 07:56:24;;;;;;;36.08;19.30;;;1.50;94.10;;;;;;5029869;28;20219;-89
2020/12/06 07:59:13;;;;;;;37.42;19.27;;;1.50;94.10;;;;;;5027282;28;20037;-89
2020/12/06 08:01:41;;;;;;;33.08;17.65;;;1.50;94.20;;;;;;5027208;28;20073;-88
2020/12/06 08:04:09;;;;;;;31.90;18.80;;;1.50;94.20;;;;;;5018624;28;20033;-88
2020/12/06 08:06:35;;;;;;;37.65;20.45;;;1.50;94.20;;;;;;5029184;28;20172;-89
2020/12/06 08:09:04;;;;;;;35.88;20.17;;;1.50;94.20;;;;;;5014691;28;20112;-89
2020/12/06 08:11:36;;;;;;;32.85;19.08;;;1.50;94.20;;;;;;5030486;28;20025;-89
2020/12/06 08:14:02;;;;;;;35.25;18.45;;;1.50;94.20;;;;;;5017055;28;20033;-89
2020/12/06 08:16:28;;;;;;;36.17;19.35;;;1.50;94.20;;;;;;5032020;28;20033;-89
2020/12/06 08:19:01;;;;;;;37.30;20.65;;;1.50;94.20;;;;;;5027275;28;20037;-89
2020/12/06 08:21:47;;;;;;;39.40;20.77;;;1.60;94.20;;;;;;5032848;28;20172;-89
2020/12/06 08:24:24;;;;;;;37.97;19.92;;;1.50;94.20;;;;;;5026305;28;20490;-89
2020/12/06 08:26:50;;;;;;;41.67;21.70;;;1.50;94.20;;;;;;5034370;28;20119;-89
2020/12/06 08:29:16;;;;;;;38.83;21.15;;;1.50;94.20;;;;;;5028624;28;20030;-89
2020/12/06 08:31:43;;;;;;;40.08;21.33;;;1.60;94.20;;;;;;5026082;28;20497;-90
2020/12/06 08:34:16;;;;;;;43.08;22.00;;;1.60;94.20;;;;;;5024419;28;20040;-89
2020/12/06 08:36:42;;;;;;;37.15;21.08;;;1.60;94.20;;;;;;5034052;28;20022;-90
2020/12/06 08:39:19;;;;;;;41.30;23.17;;;1.60;94.10;;;;;;5033256;28;20033;-90
2020/12/06 08:41:45;;;;;;;39.45;20.90;;;1.70;94.10;;;;;;5037062;28;20028;-89
2020/12/06 08:44:10;;;;;;;41.10;21.77;;;1.70;94.10;;;;;;5030806;28;20038;-89
2020/12/06 08:46:36;;;;;;;38.20;20.85;;;1.70;94.10;;;;;;5029401;28;20037;-89
2020/12/06 08:49:15;;;;;;;38.58;21.13;;;1.80;94.20;;;;;;5027282;28;20036;-88
2020/12/06 08:51:50;;;;;;;42.63;21.98;;;1.80;94.20;;;;;;5023296;28;20072;-89
2020/12/06 08:54:32;;;;;;;38.92;19.88;;;1.90;94.10;;;;;;5028889;28;20056;-89
2020/12/06 08:57:06;;;;;;;41.45;21.05;;;1.90;94.10;;;;;;5029655;28;20446;-90
2020/12/06 08:59:35;;;;;;;38.97;19.98;;;1.90;94.10;;;;;;5029756;28;20030;-90
2020/12/06 09:02:01;;;;;;;32.97;19.58;;;1.90;94.00;;;;;;5033901;28;20028;-90
2020/12/06 09:04:26;;;;;;;39.92;20.15;;;1.90;94.00;;;;;;5030112;28;20481;-91
2020/12/06 09:06:53;;;;;;;34.13;18.50;;;2.00;93.90;;;;;;5037581;28;20025;-90
2020/12/06 09:09:19;;;;;;;31.98;18.25;;;2.00;93.90;;;;;;5031825;28;20516;-87
2020/12/06 09:11:44;;;;;;;35.13;20.63;;;2.00;93.90;;;;;;5029362;28;20069;-91
2020/12/06 09:14:10;;;;;;;32.17;19.42;;;2.00;93.80;;;;;;5017096;28;20030;-90
2020/12/06 09:16:38;;;;;;;36.45;20.73;;;2.00;93.80;;;;;;5035417;28;20025;-90
2020/12/06 09:19:03;;;;;;;34.45;20.15;;;2.10;93.70;;;;;;5035193;28;20145;-88
2020/12/06 09:21:29;;;;;;;31.40;18.80;;;2.00;93.60;;;;;;5045665;28;20083;-89
2020/12/06 09:23:54;;;;;;;37.40;19.52;;;2.00;93.60;;;;;;5041236;28;20071;-89
2020/12/06 09:26:20;;;;;;;37.97;20.95;;;2.00;93.60;;;;;;5030697;28;20033;-89
2020/12/06 09:28:45;;;;;;;33.85;20.08;;;2.00;93.60;;;;;;5027419;28;20060;-89
2020/12/06 09:31:14;;;;;;;37.10;20.40;;;2.00;93.60;;;;;;5031350;28;20040;-91
2020/12/06 09:33:39;;;;;;;37.22;20.17;;;2.10;93.70;;;;;;5029342;28;20029;-90
2020/12/06 09:36:05;;;;;;;39.40;22.85;;;2.10;93.70;;;;;;5038052;28;20038;-89
2020/12/06 09:38:30;;;;;;;36.42;20.77;;;2.20;93.70;;;;;;5032328;28;20037;-90
2020/12/06 09:40:56;;;;;;;39.38;21.98;;;2.30;94.00;;;;;;5033078;28;20033;-90
2020/12/06 09:43:22;;;;;;;33.60;20.02;;;2.30;93.70;;;;;;5032228;28;20044;-88
2020/12/06 09:45:48;;;;;;;34.30;19.77;;;2.40;93.60;;;;;;5028078;28;20064;-90
2020/12/06 09:48:14;;;;;;;36.55;20.27;;;2.40;93.60;;;;;;5014025;28;20034;-88
2020/12/06 09:50:40;;;;;;;37.25;21.40;;;2.40;93.60;;;;;;5026248;28;20426;-89
2020/12/06 09:53:06;;;;;;;39.40;22.23;;;2.50;93.50;;;;;;5013443;28;20038;-90
2020/12/06 09:55:31;;;;;;;36.50;22.15;;;2.60;93.50;;;;;;5030464;28;20461;-89
2020/12/06 09:57:57;;;;;;;35.65;20.92;;;2.60;93.50;;;;;;5035096;28;20036;-89
2020/12/06 10:00:23;;;;;;;38.25;22.85;;;2.70;93.40;;;;;;5031456;28;20064;-89
2020/12/06 10:02:48;;;;;;;38.15;22.25;;;2.70;93.30;;;;;;5033505;28;20470;-90
2020/12/06 10:05:15;;;;;;;35.55;21.40;;;2.80;93.30;;;;;;5030233;28;20034;-89
2020/12/06 10:07:40;;;;;;;39.65;22.55;;;2.80;93.30;;;;;;5018364;28;20048;-89
2020/12/06 10:10:07;;;;;;;36.58;21.38;;;2.80;93.30;;;;;;5028420;28;20022;-90
2020/12/06 10:12:33;;;;;;;34.10;19.08;;;2.90;93.20;;;;;;5020569;28;20030;-89
2020/12/06 10:14:59;;;;;;;32.42;20.10;;;2.90;93.20;;;;;;5020769;28;20029;-90
2020/12/06 10:17:24;;;;;;;36.70;20.83;;;3.00;93.20;;;;;;5028773;28;20092;-89
2020/12/06 10:19:50;;;;;;;36.40;21.98;;;3.00;93.20;;;;;;5034215;28;20048;-89
2020/12/06 10:22:16;;;;;;;38.40;20.25;;;3.10;93.10;;;;;;5036056;28;20446;-90
2020/12/06 10:24:41;;;;;;;42.30;22.95;;;3.10;93.10;;;;;;5038566;28;20021;-90
2020/12/06 10:27:07;;;;;;;39.75;23.48;;;3.20;92.90;;;;;;5048576;28;20060;-87
2020/12/06 10:29:32;;;;;;;42.15;23.75;;;3.20;92.90;;;;;;5054462;28;20629;-88
2020/12/06 10:32:00;;;;;;;35.13;20.73;;;3.20;92.90;;;;;;5038593;28;20075;-88
2020/12/06 10:34:26;;;;;;;36.88;22.42;;;3.20;92.90;;;;;;5044502;28;20025;-88
2020/12/06 10:36:53;;;;;;;41.90;22.73;;;3.30;92.90;;;;;;5056025;28;20036;-89
2020/12/06 10:39:22;;;;;;;38.08;21.30;;;3.40;92.90;;;;;;5031308;28;20036;-89
2020/12/06 10:41:48;;;;;;;39.03;22.25;;;3.40;92.80;;;;;;5033374;28;20025;-88
2020/12/06 10:44:14;;;;;;;36.22;22.13;;;3.40;92.80;;;;;;5034918;28;20172;-89
2020/12/06 10:46:40;;;;;;;40.95;23.02;;;3.50;92.80;;;;;;5034391;28;20046;-89
2020/12/06 10:49:06;;;;;;;41.10;23.73;;;3.40;92.70;;;;;;5029600;28;20029;-89
2020/12/06 10:51:31;;;;;;;32.47;19.90;;;3.50;92.60;;;;;;5021109;28;20095;-89
2020/12/06 10:53:57;;;;;;;39.00;22.83;;;3.50;92.70;;;;;;5035489;28;20436;-88
2020/12/06 10:56:23;;;;;;;37.00;22.52;;;3.50;92.70;;;;;;5037993;28;20513;-89
2020/12/06 10:58:49;;;;;;;39.58;23.85;;;3.50;92.70;;;;;;5049189;28;20025;-88
2020/12/06 11:01:14;;;;;;;38.20;23.33;;;3.50;92.70;;;;;;5030985;28;20585;-89
2020/12/06 11:03:40;;;;;;;42.55;23.88;;;3.50;92.70;;;;;;5023840;28;20074;-89
2020/12/06 11:06:05;;;;;;;46.42;24.95;;;3.60;92.80;;;;;;5042683;28;20029;-87
2020/12/06 11:08:31;;;;;;;50.22;25.42;;;3.70;92.80;;;;;;5043666;28;20013;-87
2020/12/06 11:10:57;;;;;;;42.75;24.48;;;3.80;92.80;;;;;;5034796;28;20026;-90
2020/12/06 11:13:22;;;;;;;42.17;24.70;;;3.90;92.80;;;;;;5035152;28;20041;-89
2020/12/06 11:15:48;;;;;;;42.10;24.88;;;4.00;92.70;;;;;;5033193;28;20021;-89
2020/12/06 11:18:13;;;;;;;40.25;22.30;;;4.00;92.50;;;;;;5029619;28;20125;-86
2020/12/06 11:20:39;;;;;;;41.75;23.98;;;4.00;92.50;;;;;;5037715;28;20033;-89
2020/12/06 11:23:04;;;;;;;39.15;22.88;;;4.10;92.30;;;;;;5041548;28;20033;-89
2020/12/06 11:25:30;;;;;;;40.45;24.08;;;4.10;92.30;;;;;;5050174;28;20412;-89
2020/12/06 11:27:56;;;;;;;39.80;23.30;;;4.10;92.30;;;;;;5035101;28;20029;-89
2020/12/06 11:30:21;;;;;;;38.58;22.60;;;4.00;92.30;;;;;;5033260;28;20053;-89
2020/12/06 11:32:47;;;;;;;39.03;21.48;;;4.10;92.30;;;;;;5040200;28;20079;-89
2020/12/06 11:35:13;;;;;;;39.95;21.70;;;4.10;92.30;;;;;;5034386;28;20051;-89
2020/12/06 11:37:38;;;;;;;40.65;21.83;;;4.10;92.30;;;;;;5028293;28;20032;-88
2020/12/06 11:40:04;;;;;;;38.38;23.15;;;4.10;92.20;;;;;;5031802;28;20391;-87
2020/12/06 11:42:30;;;;;;;37.15;21.73;;;4.10;92.10;;;;;;5031341;28;20034;-88
2020/12/06 11:44:55;;;;;;;42.20;24.02;;;4.20;92.10;;;;;;5033155;28;20049;-88
2020/12/06 11:47:22;;;;;;;36.97;22.30;;;4.20;92.10;;;;;;5033782;28;20034;-88
2020/12/06 11:49:48;;;;;;;41.13;22.33;;;4.20;92.10;;;;;;5032364;28;20021;-88
2020/12/06 11:52:13;;;;;;;37.83;23.55;;;4.20;92.10;;;;;;5035294;28;20042;-88
2020/12/06 11:54:39;;;;;;;38.17;21.77;;;4.30;92.10;;;;;;5015436;28;20021;-88
2020/12/06 11:57:04;;;;;;;37.53;22.23;;;4.30;92.00;;;;;;5028992;28;20056;-88
2020/12/06 11:59:30;;;;;;;38.10;23.02;;;4.30;92.00;;;;;;5033499;28;20024;-88
2020/12/06 12:01:55;;;;;;;45.08;24.55;;;4.30;92.00;;;;;;5029366;28;20065;-87
2020/12/06 12:04:21;;;;;;;37.78;23.73;;;4.30;92.00;;;;;;5034318;28;20136;-88
2020/12/06 12:06:47;;;;;;;37.70;22.00;;;4.30;92.00;;;;;;5029271;28;20073;-88
2020/12/06 12:09:13;;;;;;;39.58;22.90;;;4.30;92.00;;;;;;5029566;28;20037;-88
2020/12/06 12:11:39;;;;;;;36.60;21.40;;;4.30;92.00;;;;;;5041029;28;20063;-89
2020/12/06 12:14:04;;;;;;;38.15;22.70;;;4.40;92.00;;;;;;5043841;28;20105;-88
2020/12/06 12:16:30;;;;;;;40.13;23.42;;;4.40;92.00;;;;;;5034177;28;20435;-88
2020/12/06 12:18:55;;;;;;;41.53;23.55;;;4.40;92.00;;;;;;5028685;28;20076;-88
2020/12/06 12:21:21;;;;;;;37.67;23.20;;;4.40;91.90;;;;;;5018583;28;20502;-88
2020/12/06 12:23:46;;;;;;;42.35;24.48;;;4.40;92.00;;;;;;5023701;28;20026;-88
2020/12/06 12:26:12;;;;;;;40.92;23.98;;;4.50;91.90;;;;;;5029897;28;20033;-88
2020/12/06 12:28:38;;;;;;;39.03;23.70;;;4.40;91.90;;;;;;5013904;28;20553;-88
2020/12/06 12:31:04;;;;;;;38.90;23.20;;;4.40;91.90;;;;;;5024791;28;20482;-88
2020/12/06 12:33:29;;;;;;;49.17;24.08;;;4.40;92.00;;;;;;5043072;28;20035;-89